Time;durP1;ratioP1;P1;durP2;ratioP2;P2;SDS_P1;SDS_P2;PMS_P1;PMS_P2;Temp;Humidity;BMP_temperature;BMP_pressure;BME280_temperature;BME280_humidity;BME280_pressure;Samples;Min_cycle;Max_cycle;Signal;HPM_P1;HPM_P2
2022/05/17 00:00:43;;;;;;;25.05;8.63;;;13.80;99.90;;;;;;5081382;28;20036;-82
2022/05/17 00:03:09;;;;;;;25.30;9.10;;;13.80;99.90;;;;;;5080955;28;20029;-82
2022/05/17 00:05:35;;;;;;;22.40;8.77;;;13.80;99.90;;;;;;5081213;28;20084;-82
2022/05/17 00:08:00;;;;;;;24.20;10.48;;;13.70;99.90;;;;;;5081538;28;20068;-82
2022/05/17 00:10:27;;;;;;;23.25;8.60;;;13.70;99.90;;;;;;5080811;28;20025;-83
2022/05/17 00:12:53;;;;;;;25.30;9.27;;;13.70;99.90;;;;;;5080248;28;20029;-82
2022/05/17 00:15:20;;;;;;;26.17;9.43;;;13.70;99.90;;;;;;5079984;28;20064;-82
2022/05/17 00:17:48;;;;;;;23.52;10.05;;;13.60;99.90;;;;;;5080787;28;20073;-82
2022/05/17 00:20:14;;;;;;;26.02;8.73;;;13.60;99.90;;;;;;5080456;28;20024;-82
2022/05/17 00:22:43;;;;;;;29.13;10.23;;;13.50;99.90;;;;;;5080495;28;20022;-82
2022/05/17 00:25:10;;;;;;;32.33;9.48;;;13.50;99.90;;;;;;5080381;28;20036;-84
2022/05/17 00:27:35;;;;;;;27.80;10.32;;;13.50;99.90;;;;;;5080408;28;20036;-83
2022/05/17 00:30:02;;;;;;;22.77;8.85;;;13.50;99.90;;;;;;5080579;28;20041;-82
2022/05/17 00:32:27;;;;;;;26.65;8.95;;;13.50;99.90;;;;;;5080165;28;20025;-82
2022/05/17 00:34:53;;;;;;;34.88;10.07;;;13.50;99.90;;;;;;5079786;28;20048;-83
2022/05/17 00:37:20;;;;;;;27.73;9.90;;;13.60;99.90;;;;;;5080402;28;20033;-82
2022/05/17 00:39:46;;;;;;;22.42;8.57;;;13.60;99.90;;;;;;5080250;28;20029;-83
2022/05/17 00:42:11;;;;;;;23.80;8.38;;;13.60;99.90;;;;;;5079939;28;20044;-83
2022/05/17 00:44:42;;;;;;;28.05;9.55;;;13.70;99.90;;;;;;5079996;28;20089;-82
2022/05/17 00:47:20;;;;;;;40.05;11.55;;;13.70;99.90;;;;;;5080133;28;20021;-82
2022/05/17 00:49:52;;;;;;;38.25;9.93;;;13.70;99.90;;;;;;5080235;28;20041;-82
2022/05/17 00:52:26;;;;;;;24.85;8.85;;;13.70;99.90;;;;;;5062830;28;20043;-82
2022/05/17 00:54:56;;;;;;;29.27;8.45;;;13.60;99.90;;;;;;5079704;28;20072;-82
2022/05/17 00:58:07;;;;;;;28.45;9.32;;;13.60;99.90;;;;;;5080080;28;20080;-82
2022/05/17 01:00:37;;;;;;;21.52;8.23;;;13.50;99.90;;;;;;4999259;28;20050;-82
2022/05/17 01:03:09;;;;;;;27.42;8.13;;;13.40;99.90;;;;;;4999726;28;20030;-82
2022/05/17 01:05:40;;;;;;;28.95;10.85;;;13.40;99.90;;;;;;5035142;28;20156;-82
2022/05/17 01:08:08;;;;;;;33.00;9.32;;;13.40;99.90;;;;;;5070215;28;20029;-82
2022/05/17 01:10:34;;;;;;;27.60;8.38;;;13.30;99.90;;;;;;5079727;28;20067;-82
2022/05/17 01:15:45;;;;;;;30.17;8.95;;;13.20;99.90;;;;;;5079378;28;20029;-83
2022/05/17 01:18:11;;;;;;;23.65;8.88;;;13.30;99.90;;;;;;5079346;28;20033;-82
2022/05/17 01:20:37;;;;;;;24.48;9.05;;;13.20;99.90;;;;;;5079423;28;20047;-82
2022/05/17 01:23:03;;;;;;;32.78;9.90;;;13.20;99.90;;;;;;5079466;28;20047;-82
2022/05/17 01:25:29;;;;;;;23.90;8.57;;;13.20;99.90;;;;;;5079093;28;20017;-82
2022/05/17 01:28:02;;;;;;;32.67;9.35;;;13.20;99.90;;;;;;5079220;28;20059;-82
2022/05/17 01:30:29;;;;;;;35.03;11.15;;;13.20;99.90;;;;;;5078604;28;20040;-82
2022/05/17 01:32:55;;;;;;;26.38;8.68;;;13.20;99.90;;;;;;5079403;28;20041;-83
2022/05/17 01:35:22;;;;;;;22.70;8.82;;;13.20;99.90;;;;;;5079005;28;20029;-82
2022/05/17 01:37:53;;;;;;;24.52;9.18;;;13.20;99.90;;;;;;5078908;28;20051;-82
2022/05/17 01:40:19;;;;;;;33.88;10.05;;;13.20;99.90;;;;;;5078641;28;20057;-83
2022/05/17 01:42:44;;;;;;;29.55;9.65;;;13.20;99.90;;;;;;5078974;28;20029;-82
2022/05/17 01:45:11;;;;;;;24.88;9.13;;;14.00;99.90;;;;;;5078833;28;20044;-83
2022/05/17 01:47:37;;;;;;;29.48;9.15;;;13.10;99.90;;;;;;5079037;28;20024;-82
2022/05/17 01:50:03;;;;;;;23.73;8.77;;;13.10;99.90;;;;;;5079061;28;20029;-82
2022/05/17 01:52:29;;;;;;;25.33;8.63;;;13.10;99.90;;;;;;5078750;28;20032;-82
2022/05/17 01:54:54;;;;;;;29.20;9.15;;;13.00;99.90;;;;;;5078709;28;20104;-83
2022/05/17 01:57:20;;;;;;;32.80;9.02;;;13.00;99.90;;;;;;5078789;28;20041;-82
2022/05/17 02:02:14;;;;;;;30.52;9.13;;;12.90;99.90;;;;;;5018849;28;20061;-76
2022/05/17 02:04:39;;;;;;;27.30;9.80;;;12.80;99.90;;;;;;5013781;28;20046;-75
2022/05/17 02:07:05;;;;;;;20.58;9.32;;;12.80;99.90;;;;;;5013672;28;20373;-75
2022/05/17 02:09:31;;;;;;;24.95;8.80;;;12.80;99.90;;;;;;5012319;28;20081;-75
2022/05/17 02:11:56;;;;;;;26.02;9.10;;;12.80;99.90;;;;;;5012754;28;20054;-75
2022/05/17 02:14:22;;;;;;;26.88;8.23;;;12.80;99.90;;;;;;5012867;28;20037;-75
2022/05/17 02:16:48;;;;;;;30.08;9.68;;;12.80;99.90;;;;;;5013420;28;20129;-75
2022/05/17 02:19:18;;;;;;;28.95;8.95;;;12.80;99.90;;;;;;5013498;28;20069;-75
2022/05/17 02:21:43;;;;;;;30.73;8.50;;;12.80;99.90;;;;;;5013513;28;20046;-75
2022/05/17 02:24:09;;;;;;;33.65;8.95;;;12.80;99.90;;;;;;5013420;28;20096;-75
2022/05/17 02:26:34;;;;;;;27.30;9.07;;;12.80;99.90;;;;;;5012821;28;20564;-75
2022/05/17 02:29:00;;;;;;;27.88;9.32;;;12.70;99.90;;;;;;5011736;28;20042;-75
2022/05/17 02:31:25;;;;;;;35.17;9.07;;;12.60;99.90;;;;;;5013045;28;20053;-75
2022/05/17 02:33:51;;;;;;;30.35;9.07;;;12.50;99.90;;;;;;5014079;28;20050;-75
2022/05/17 02:36:16;;;;;;;34.40;9.00;;;12.40;99.90;;;;;;5011593;28;20046;-75
2022/05/17 02:38:43;;;;;;;36.22;9.85;;;12.40;99.90;;;;;;5012991;28;20096;-75
2022/05/17 02:41:10;;;;;;;23.45;8.68;;;12.40;99.90;;;;;;5012697;28;20183;-75
2022/05/17 02:43:37;;;;;;;16.67;9.00;;;12.30;99.90;;;;;;5013024;28;20041;-76
2022/05/17 02:46:03;;;;;;;23.15;8.85;;;12.30;99.90;;;;;;5012995;28;20442;-75
2022/05/17 02:48:29;;;;;;;32.45;10.20;;;12.30;99.90;;;;;;5012769;28;20038;-75
2022/05/17 02:50:55;;;;;;;35.42;10.88;;;12.20;99.90;;;;;;5012898;28;20052;-75
2022/05/17 02:53:21;;;;;;;30.95;10.75;;;12.20;99.90;;;;;;5012921;28;20483;-75
2022/05/17 02:55:47;;;;;;;29.05;9.15;;;12.20;99.90;;;;;;5012901;28;20075;-76
2022/05/17 02:58:12;;;;;;;29.27;9.75;;;12.20;99.90;;;;;;5012434;28;20054;-76
2022/05/17 03:00:38;;;;;;;30.02;9.82;;;12.20;99.90;;;;;;5012544;28;20050;-76
2022/05/17 03:03:04;;;;;;;30.70;10.75;;;12.20;99.90;;;;;;5012752;28;20053;-76
2022/05/17 03:05:29;;;;;;;32.40;11.02;;;12.20;99.90;;;;;;5012447;28;20046;-76
2022/05/17 03:07:55;;;;;;;25.42;10.52;;;12.20;99.90;;;;;;5013415;28;20112;-76
2022/05/17 03:10:21;;;;;;;22.95;10.13;;;12.10;99.90;;;;;;5012740;28;20100;-76
2022/05/17 03:12:47;;;;;;;24.98;9.82;;;12.20;99.90;;;;;;5012595;28;20041;-76
2022/05/17 03:15:18;;;;;;;33.25;11.48;;;12.20;99.90;;;;;;5012293;28;20092;-76
2022/05/17 03:17:44;;;;;;;21.65;9.48;;;12.20;99.90;;;;;;5011169;28;20049;-76
2022/05/17 03:20:10;;;;;;;36.58;11.23;;;12.30;99.90;;;;;;5011250;28;20049;-75
2022/05/17 03:22:36;;;;;;;34.05;12.82;;;12.30;99.90;;;;;;5012317;28;20117;-76
2022/05/17 03:25:03;;;;;;;34.58;11.15;;;12.20;99.90;;;;;;5012268;28;20125;-76
2022/05/17 03:27:28;;;;;;;29.77;12.18;;;12.30;99.90;;;;;;5012466;28;20494;-76
2022/05/17 03:29:54;;;;;;;39.58;12.38;;;12.30;99.90;;;;;;5012285;28;20048;-75
2022/05/17 03:32:20;;;;;;;28.48;11.82;;;12.30;99.90;;;;;;5012260;28;20038;-76
2022/05/17 03:34:46;;;;;;;29.50;11.07;;;12.40;99.90;;;;;;5010713;28;20125;-76
2022/05/17 03:37:12;;;;;;;29.80;11.52;;;12.40;99.90;;;;;;5011994;28;20463;-76
2022/05/17 03:39:37;;;;;;;37.80;11.57;;;12.30;99.90;;;;;;5012380;28;20057;-75
2022/05/17 03:42:03;;;;;;;34.22;12.10;;;12.30;99.90;;;;;;5012326;28;20383;-76
2022/05/17 03:44:28;;;;;;;36.22;11.05;;;12.30;99.90;;;;;;5012019;28;20490;-77
2022/05/17 03:46:54;;;;;;;25.92;10.82;;;12.20;99.90;;;;;;5012422;28;20053;-77
2022/05/17 03:49:20;;;;;;;29.83;12.40;;;12.20;99.90;;;;;;5012192;28;20050;-77
2022/05/17 03:51:47;;;;;;;36.45;12.60;;;12.20;99.90;;;;;;5011864;28;20049;-77
2022/05/17 03:54:17;;;;;;;27.23;10.82;;;12.20;99.90;;;;;;5012214;28;20109;-77
2022/05/17 03:56:44;;;;;;;34.35;12.10;;;12.30;99.90;;;;;;5042631;28;20498;-77
2022/05/17 03:59:10;;;;;;;33.35;12.23;;;12.30;99.90;;;;;;5012184;28;20046;-77
2022/05/17 04:01:35;;;;;;;32.67;13.65;;;12.30;99.90;;;;;;5011139;28;20536;-77
2022/05/17 04:04:01;;;;;;;36.63;13.40;;;12.30;99.90;;;;;;5011907;28;20054;-77
2022/05/17 04:06:27;;;;;;;30.15;12.05;;;12.30;99.90;;;;;;5011843;28;20038;-77
2022/05/17 04:08:52;;;;;;;26.83;12.25;;;12.40;99.90;;;;;;5010829;28;20076;-77
2022/05/17 04:11:18;;;;;;;34.58;12.95;;;12.40;99.90;;;;;;5012161;28;20077;-77
2022/05/17 04:13:44;;;;;;;33.55;12.43;;;12.50;99.90;;;;;;5011856;28;20096;-77
2022/05/17 04:16:10;;;;;;;27.48;11.68;;;12.50;99.90;;;;;;5011903;28;20092;-77
2022/05/17 04:18:35;;;;;;;32.88;13.05;;;12.60;99.90;;;;;;5012168;28;20092;-76
2022/05/17 04:21:03;;;;;;;38.03;11.50;;;12.70;99.90;;;;;;5011919;28;20082;-77
2022/05/17 04:23:29;;;;;;;36.50;12.98;;;12.70;99.90;;;;;;5011888;28;20056;-77
2022/05/17 04:25:56;;;;;;;35.45;11.23;;;12.80;99.90;;;;;;5011340;28;20137;-77
2022/05/17 04:28:21;;;;;;;34.10;11.70;;;12.90;99.90;;;;;;5012056;28;20048;-77
2022/05/17 04:30:47;;;;;;;21.77;9.65;;;13.10;99.90;;;;;;5011736;28;20050;-77
2022/05/17 04:33:13;;;;;;;29.92;12.40;;;13.20;99.90;;;;;;5012162;28;20045;-77
2022/05/17 04:35:40;;;;;;;22.20;10.85;;;13.40;99.90;;;;;;5015082;28;20041;-77
2022/05/17 04:38:07;;;;;;;27.40;9.85;;;13.60;99.90;;;;;;5015543;28;20041;-77
2022/05/17 04:40:33;;;;;;;21.73;9.15;;;13.80;99.90;;;;;;5015283;28;20050;-76
2022/05/17 04:42:59;;;;;;;23.33;9.30;;;14.10;99.90;;;;;;5015340;28;20057;-76
2022/05/17 04:45:25;;;;;;;24.75;9.32;;;14.50;99.90;;;;;;5014895;28;20037;-77
2022/05/17 04:47:50;;;;;;;20.77;7.78;;;14.80;99.90;;;;;;5015110;28;20078;-77
2022/05/17 04:50:18;;;;;;;23.65;7.20;;;15.10;99.90;;;;;;5015109;28;20082;-77
2022/05/17 04:52:44;;;;;;;18.88;8.32;;;15.50;99.90;;;;;;5015199;28;20117;-77
2022/05/17 04:55:11;;;;;;;18.92;7.32;;;16.10;99.90;;;;;;5014925;28;20046;-77
2022/05/17 04:57:37;;;;;;;24.35;8.05;;;16.90;99.90;;;;;;5015021;28;20097;-77
2022/05/17 05:00:13;;;;;;;17.85;8.27;;;17.10;99.90;;;;;;5014381;28;20045;-77
2022/05/17 05:02:38;;;;;;;17.52;6.45;;;17.60;99.90;;;;;;5011840;28;20049;-77
2022/05/17 05:05:05;;;;;;;18.67;5.53;;;18.00;99.90;;;;;;5011696;28;20046;-77
2022/05/17 05:07:31;;;;;;;16.85;6.15;;;18.20;99.90;;;;;;5012255;28;20049;-77
2022/05/17 05:09:57;;;;;;;16.15;5.45;;;18.40;99.90;;;;;;5011663;28;20053;-77
2022/05/17 05:12:23;;;;;;;17.30;5.85;;;18.70;99.90;;;;;;5010206;28;20061;-77
2022/05/17 05:14:49;;;;;;;22.48;5.60;;;19.00;99.90;;;;;;5011786;28;20049;-77
2022/05/17 05:17:15;;;;;;;16.08;4.97;;;18.90;99.90;;;;;;5011255;28;20042;-77
2022/05/17 05:19:40;;;;;;;18.50;7.07;;;18.20;99.90;;;;;;5011687;28;20469;-77
2022/05/17 05:22:06;;;;;;;15.13;5.63;;;17.70;99.90;;;;;;5011632;28;20069;-77
2022/05/17 05:24:32;;;;;;;14.02;5.45;;;17.30;99.90;;;;;;5012494;28;20046;-77
2022/05/17 05:26:58;;;;;;;16.95;6.25;;;16.80;99.90;;;;;;5013910;28;20379;-77
2022/05/17 05:29:24;;;;;;;20.55;6.15;;;16.70;99.90;;;;;;5013581;28;20104;-77
2022/05/17 05:31:50;;;;;;;15.90;5.22;;;16.90;99.90;;;;;;5013975;28;20054;-78
2022/05/17 05:34:15;;;;;;;20.48;5.55;;;17.10;99.90;;;;;;5014570;28;20041;-77
2022/05/17 05:36:41;;;;;;;15.68;4.55;;;17.20;99.90;;;;;;5014151;28;20080;-77
2022/05/17 05:39:07;;;;;;;18.45;4.70;;;17.50;99.90;;;;;;5014384;28;20041;-77
2022/05/17 05:41:32;;;;;;;16.83;5.43;;;17.70;99.90;;;;;;5014150;28;20049;-77
2022/05/17 05:43:58;;;;;;;16.33;6.00;;;17.80;99.90;;;;;;5013878;28;20129;-78
2022/05/17 05:46:23;;;;;;;13.25;4.40;;;18.00;99.90;;;;;;5011798;28;20103;-78
2022/05/17 05:48:49;;;;;;;18.20;4.75;;;18.50;99.90;;;;;;5013243;28;20117;-78
2022/05/17 05:51:14;;;;;;;15.27;4.53;;;19.00;99.90;;;;;;5013475;28;20577;-78
2022/05/17 05:53:40;;;;;;;14.13;4.07;;;19.40;99.90;;;;;;5012357;28;20049;-77
2022/05/17 05:56:06;;;;;;;17.48;4.10;;;20.20;99.90;;;;;;5013690;28;20045;-77
2022/05/17 05:58:36;;;;;;;10.63;4.22;;;20.70;99.90;;;;;;5013564;28;20038;-77
2022/05/17 06:01:03;;;;;;;12.60;4.22;;;21.60;99.90;;;;;;5013524;28;20068;-78
2022/05/17 06:03:29;;;;;;;10.88;4.43;;;21.90;96.80;;;;;;5013766;28;20064;-77
2022/05/17 06:05:54;;;;;;;12.13;3.75;;;22.10;80.60;;;;;;5005129;28;20125;-77
2022/05/17 06:08:21;;;;;;;17.40;4.45;;;22.40;74.90;;;;;;5004323;28;20490;-78
2022/05/17 06:10:47;;;;;;;13.80;3.97;;;22.60;73.90;;;;;;5003342;28;20403;-78
2022/05/17 06:13:14;;;;;;;12.55;3.42;;;22.50;65.30;;;;;;5002375;28;20041;-78
2022/05/17 06:15:40;;;;;;;17.83;4.53;;;22.20;68.60;;;;;;5004057;28;20405;-78
2022/05/17 06:18:07;;;;;;;11.32;3.47;;;21.90;74.80;;;;;;5003488;28;20054;-77
2022/05/17 06:20:34;;;;;;;11.23;3.65;;;21.80;75.90;;;;;;5000843;28;20126;-77
2022/05/17 06:23:00;;;;;;;10.70;4.22;;;22.10;72.40;;;;;;5004212;28;20041;-78
2022/05/17 06:25:26;;;;;;;13.20;4.47;;;22.40;63.40;;;;;;5002912;28;20475;-78
2022/05/17 06:27:51;;;;;;;13.90;4.10;;;22.20;65.20;;;;;;5002407;28;20463;-78
2022/05/17 06:30:17;;;;;;;12.50;4.05;;;22.60;64.90;;;;;;5012672;28;20041;-77
2022/05/17 06:32:43;;;;;;;13.43;3.90;;;22.50;67.60;;;;;;5013450;28;20045;-78
2022/05/17 06:35:10;;;;;;;11.50;4.03;;;23.10;59.80;;;;;;5013409;28;20125;-78
2022/05/17 06:37:37;;;;;;;13.05;3.70;;;23.10;59.40;;;;;;5013617;28;20057;-78
2022/05/17 06:40:03;;;;;;;14.65;3.90;;;23.20;56.90;;;;;;5012999;28;20124;-78
2022/05/17 06:42:29;;;;;;;11.18;3.72;;;23.50;52.70;;;;;;5013335;28;20528;-78
2022/05/17 06:44:55;;;;;;;9.93;3.75;;;23.50;47.70;;;;;;5012911;28;20121;-78
2022/05/17 06:47:20;;;;;;;12.63;4.40;;;23.50;46.50;;;;;;5007510;28;20081;-78
2022/05/17 06:49:46;;;;;;;14.48;4.57;;;23.40;43.50;;;;;;4993405;28;20089;-78
2022/05/17 06:52:12;;;;;;;13.75;4.00;;;22.90;47.90;;;;;;4993166;28;20046;-78
2022/05/17 06:54:40;;;;;;;12.82;4.97;;;23.00;47.00;;;;;;4993218;28;20061;-77
2022/05/17 06:57:07;;;;;;;13.98;3.88;;;22.70;51.20;;;;;;5024423;28;20113;-78
2022/05/17 06:59:35;;;;;;;13.80;3.97;;;22.60;55.40;;;;;;4993297;28;20058;-78
2022/05/17 07:02:01;;;;;;;14.18;3.28;;;22.70;53.50;;;;;;4992884;28;20055;-78
2022/05/17 07:04:28;;;;;;;10.90;3.60;;;22.80;54.30;;;;;;4990463;28;20074;-77
2022/05/17 07:06:55;;;;;;;14.20;4.70;;;23.20;47.80;;;;;;4990275;28;20324;-78
2022/05/17 07:09:22;;;;;;;12.82;4.10;;;23.40;42.70;;;;;;4990282;28;20058;-78
2022/05/17 07:14:32;;;;;;;9.82;3.70;;;23.70;41.20;;;;;;4990157;28;20065;-78
2022/05/17 07:16:58;;;;;;;13.10;4.03;;;24.10;34.80;;;;;;4990084;28;20046;-78
2022/05/17 07:19:24;;;;;;;13.93;4.15;;;24.40;29.90;;;;;;4990586;28;20053;-78
2022/05/17 07:21:50;;;;;;;12.60;3.90;;;24.80;26.90;;;;;;4990163;28;20054;-78
2022/05/17 07:24:18;;;;;;;13.75;3.80;;;24.90;20.40;;;;;;4990045;28;20046;-77
2022/05/17 07:26:44;;;;;;;11.50;4.30;;;24.60;20.70;;;;;;4990157;28;20125;-77
2022/05/17 07:29:10;;;;;;;13.82;4.20;;;24.80;23.10;;;;;;4990357;28;20121;-77
2022/05/17 07:31:36;;;;;;;10.88;3.67;;;24.80;21.40;;;;;;4989985;28;20097;-77
2022/05/17 07:34:03;;;;;;;11.98;4.03;;;25.00;17.20;;;;;;4989899;28;20042;-77
2022/05/17 07:36:28;;;;;;;14.27;3.40;;;25.00;20.20;;;;;;4990592;28;20042;-77
2022/05/17 07:38:54;;;;;;;14.30;3.53;;;25.10;15.70;;;;;;4994464;28;20545;-77
2022/05/17 07:41:20;;;;;;;13.98;3.72;;;25.20;14.90;;;;;;5001612;28;20044;-77
2022/05/17 07:43:45;;;;;;;13.02;5.03;;;24.90;18.40;;;;;;5009446;28;20049;-77
2022/05/17 07:46:11;;;;;;;11.80;3.95;;;25.00;15.80;;;;;;5009640;28;20042;-77
2022/05/17 07:48:36;;;;;;;13.05;4.45;;;25.10;13.20;;;;;;5009771;28;20502;-77
2022/05/17 07:51:02;;;;;;;12.27;4.55;;;25.20;13.20;;;;;;5006178;28;20392;-77
2022/05/17 07:53:28;;;;;;;8.73;3.33;;;25.30;17.30;;;;;;5009253;28;20037;-77
2022/05/17 07:55:54;;;;;;;13.13;4.00;;;26.00;13.10;;;;;;5009445;28;20046;-77
2022/05/17 07:58:20;;;;;;;14.00;4.40;;;26.40;9.60;;;;;;5009238;28;20084;-77
2022/05/17 08:00:46;;;;;;;13.77;3.38;;;26.70;8.30;;;;;;5008906;28;20062;-77
2022/05/17 08:03:15;;;;;;;11.40;3.40;;;27.20;1.00;;;;;;5009327;28;20514;-77
2022/05/17 08:05:42;;;;;;;13.10;3.55;;;27.00;1.00;;;;;;5009447;28;20054;-77
2022/05/17 08:08:08;;;;;;;11.38;3.25;;;27.00;1.00;;;;;;5009309;28;20494;-77
2022/05/17 08:10:34;;;;;;;13.55;3.38;;;27.20;1.00;;;;;;5012957;28;20045;-76
2022/05/17 08:12:59;;;;;;;15.45;4.45;;;27.50;1.00;;;;;;5012895;28;20509;-76
2022/05/17 08:15:27;;;;;;;15.82;4.30;;;27.60;1.00;;;;;;5012724;28;20046;-77
2022/05/17 08:17:53;;;;;;;11.73;3.70;;;27.60;1.00;;;;;;5012744;28;20056;-77
2022/05/17 08:20:18;;;;;;;11.32;4.05;;;27.40;1.00;;;;;;5013085;28;20065;-77
2022/05/17 08:22:45;;;;;;;12.23;3.78;;;27.10;1.00;;;;;;5012644;28;20143;-76
2022/05/17 08:27:58;;;;;;;14.18;4.00;;;27.20;1.00;;;;;;5013196;28;20081;-76
2022/05/17 08:30:26;;;;;;;10.43;3.10;;;27.40;1.00;;;;;;5013993;28;20474;-76
2022/05/17 08:33:17;;;;;;;14.63;3.88;;;26.80;1.00;;;;;;5012279;28;20049;-77
2022/05/17 08:36:01;;;;;;;11.63;3.85;;;27.50;1.00;;;;;;5012232;28;20564;-76
2022/05/17 08:38:35;;;;;;;8.65;3.45;;;27.70;1.00;;;;;;5012507;28;20073;-76
2022/05/17 08:41:01;;;;;;;12.93;3.67;;;28.30;1.00;;;;;;5012195;28;20129;-76
2022/05/17 08:43:54;;;;;;;15.55;4.15;;;28.60;1.00;;;;;;5012585;28;20132;-76
2022/05/17 08:46:34;;;;;;;12.93;3.08;;;28.70;1.00;;;;;;5012146;28;20050;-76
2022/05/17 08:49:11;;;;;;;13.82;3.22;;;28.10;1.00;;;;;;5012439;28;20050;-76
2022/05/17 08:52:12;;;;;;;12.27;3.05;;;27.70;1.00;;;;;;5012028;28;20085;-76
2022/05/17 08:54:41;;;;;;;11.88;3.25;;;28.00;1.00;;;;;;5012098;28;20053;-76
2022/05/17 08:57:29;;;;;;;12.07;3.17;;;28.30;1.00;;;;;;5012330;28;20454;-77
2022/05/17 09:00:02;;;;;;;12.57;3.13;;;27.90;1.00;;;;;;5011507;28;20117;-76
2022/05/17 09:02:39;;;;;;;9.52;2.55;;;28.50;1.00;;;;;;5043584;28;20181;-77
2022/05/17 09:05:13;;;;;;;9.75;2.90;;;28.20;1.00;;;;;;5012061;28;20041;-77
2022/05/17 09:08:16;;;;;;;7.30;2.15;;;28.50;1.00;;;;;;5011927;28;20129;-76
2022/05/17 09:10:50;;;;;;;12.23;2.78;;;29.00;1.00;;;;;;5011912;28;20045;-76
2022/05/17 09:13:31;;;;;;;9.80;2.58;;;28.50;1.00;;;;;;5011753;28;20499;-77
2022/05/17 09:15:59;;;;;;;10.93;2.60;;;28.90;1.00;;;;;;5011647;28;20494;-77
2022/05/17 09:18:26;;;;;;;9.38;2.47;;;29.00;1.00;;;;;;5011588;28;20548;-76
2022/05/17 09:20:52;;;;;;;14.02;3.10;;;28.50;1.00;;;;;;5011307;28;20045;-76
2022/05/17 09:23:17;;;;;;;11.60;2.30;;;27.60;1.00;;;;;;5011424;28;20513;-77
2022/05/17 09:25:58;;;;;;;10.18;2.10;;;27.50;1.00;;;;;;5011263;28;20037;-77
2022/05/17 09:28:27;;;;;;;17.63;3.25;;;28.10;1.00;;;;;;5011416;28;20506;-76
2022/05/17 09:31:17;;;;;;;9.25;2.60;;;28.50;1.00;;;;;;5011321;28;20046;-77
2022/05/17 09:33:43;;;;;;;9.80;2.50;;;27.80;1.00;;;;;;5011237;28;20505;-76
2022/05/17 09:36:21;;;;;;;8.65;2.35;;;28.10;1.00;;;;;;5011539;28;20054;-76
2022/05/17 09:38:50;;;;;;;9.50;2.85;;;28.60;1.00;;;;;;5011333;28;20140;-76
2022/05/17 09:41:21;;;;;;;14.02;3.47;;;28.70;1.00;;;;;;5011188;28;20053;-76
2022/05/17 09:44:24;;;;;;;8.95;2.33;;;28.80;1.00;;;;;;5011224;28;20143;-77
2022/05/17 09:46:55;;;;;;;5.53;1.73;;;28.30;1.00;;;;;;4979588;28;20056;-77
2022/05/17 09:52:38;;;;;;;7.55;2.30;;;26.90;1.00;;;;;;5011221;28;20056;-76
2022/05/17 09:55:10;;;;;;;6.15;2.08;;;27.00;1.00;;;;;;5029258;28;20060;-76
2022/05/17 09:57:36;;;;;;;13.30;2.50;;;27.30;1.00;;;;;;5027688;28;20053;-76
2022/05/17 10:00:16;;;;;;;8.27;2.28;;;27.30;1.00;;;;;;5010239;28;20046;-76
2022/05/17 10:02:53;;;;;;;8.00;2.58;;;26.50;1.00;;;;;;5009536;28;20042;-76
2022/05/17 10:05:26;;;;;;;14.40;3.40;;;26.40;1.00;;;;;;5009243;28;20325;-76
2022/05/17 10:08:00;;;;;;;9.98;2.33;;;25.90;1.00;;;;;;5009253;28;20034;-76
2022/05/17 10:10:32;;;;;;;8.90;2.40;;;26.10;1.00;;;;;;5009114;28;20053;-76
2022/05/17 10:13:24;;;;;;;10.95;3.20;;;26.40;1.00;;;;;;5008908;28;20045;-76
2022/05/17 10:16:01;;;;;;;6.20;1.95;;;26.80;1.00;;;;;;5009143;28;20406;-76
2022/05/17 10:18:54;;;;;;;6.72;2.10;;;26.90;1.00;;;;;;5009194;28;20050;-76
2022/05/17 10:21:27;;;;;;;9.75;2.45;;;26.60;1.00;;;;;;5006110;28;20057;-76
2022/05/17 10:24:38;;;;;;;13.05;3.28;;;26.00;1.00;;;;;;5011415;28;20050;-76
2022/05/17 10:27:30;;;;;;;12.38;2.35;;;26.10;1.00;;;;;;5013777;28;20084;-76
2022/05/17 10:30:19;;;;;;;10.40;2.63;;;26.50;1.00;;;;;;5001928;28;20057;-77
2022/05/17 10:33:00;;;;;;;8.55;2.63;;;25.80;1.00;;;;;;5013032;28;20034;-76
2022/05/17 10:35:46;;;;;;;8.77;2.42;;;26.10;1.00;;;;;;5013604;28;20092;-76
2022/05/17 10:38:25;;;;;;;7.07;1.90;;;26.90;1.00;;;;;;5013453;28;20120;-76
2022/05/17 10:40:53;;;;;;;7.40;2.10;;;27.60;1.00;;;;;;5012252;28;20058;-76
2022/05/17 10:43:26;;;;;;;8.40;2.47;;;27.70;1.00;;;;;;5013392;28;20487;-76
2022/05/17 10:46:04;;;;;;;7.63;2.10;;;27.70;1.00;;;;;;5011904;28;20120;-76
2022/05/17 10:48:42;;;;;;;7.82;2.03;;;28.40;1.00;;;;;;5013198;28;20549;-76
2022/05/17 10:51:12;;;;;;;8.88;1.77;;;28.60;1.00;;;;;;5013585;28;20058;-76
2022/05/17 10:54:15;;;;;;;7.65;1.70;;;28.80;1.00;;;;;;5013391;28;20049;-76
2022/05/17 10:57:10;;;;;;;11.50;1.90;;;27.50;1.00;;;;;;5013546;28;20553;-76
2022/05/17 10:59:54;;;;;;;5.78;1.60;;;27.00;1.00;;;;;;5012741;28;20592;-76
2022/05/17 11:02:57;;;;;;;14.95;2.60;;;27.30;1.00;;;;;;5013076;28;20100;-76
2022/05/17 11:05:36;;;;;;;10.00;2.40;;;27.60;1.00;;;;;;5013019;28;20069;-76
2022/05/17 11:08:11;;;;;;;10.68;2.28;;;27.30;1.00;;;;;;5012974;28;20045;-74
2022/05/17 11:10:50;;;;;;;7.65;2.00;;;27.00;1.00;;;;;;5011328;28;20050;-74
2022/05/17 11:13:31;;;;;;;13.82;2.67;;;27.40;1.00;;;;;;5012735;28;20042;-74
2022/05/17 11:16:26;;;;;;;8.05;2.05;;;27.70;1.00;;;;;;5012628;28;20049;-74
2022/05/17 11:19:07;;;;;;;6.13;1.63;;;28.40;1.00;;;;;;5012760;28;20073;-74
2022/05/17 11:21:36;;;;;;;8.90;1.85;;;29.10;1.00;;;;;;5012618;28;20041;-74
2022/05/17 11:24:29;;;;;;;7.25;1.52;;;29.60;1.00;;;;;;5011341;28;20056;-76
2022/05/17 11:27:33;;;;;;;8.38;1.55;;;30.30;1.00;;;;;;4999292;28;20089;-76
2022/05/17 11:30:17;;;;;;;7.05;1.90;;;31.20;1.00;;;;;;4927472;29;20055;-74
2022/05/17 11:33:28;;;;;;;5.72;1.40;;;30.90;1.00;;;;;;4912002;29;20118;-74
2022/05/17 11:36:32;;;;;;;4.90;1.48;;;31.10;1.00;;;;;;4979792;28;20073;-77
2022/05/17 11:39:00;;;;;;;5.30;1.50;;;30.20;1.00;;;;;;4985953;28;20156;-77
2022/05/17 11:41:34;;;;;;;8.38;1.40;;;30.00;1.00;;;;;;4988482;28;20058;-74
2022/05/17 11:44:02;;;;;;;6.90;2.30;;;30.00;1.00;;;;;;5022616;28;20601;-74
2022/05/17 11:46:28;;;;;;;6.47;1.65;;;29.70;1.00;;;;;;5023913;28;20502;-74
2022/05/17 11:48:58;;;;;;;12.05;2.00;;;28.90;1.00;;;;;;4992235;28;20050;-75
2022/05/17 11:51:28;;;;;;;14.50;2.67;;;28.30;1.00;;;;;;4992396;28;20112;-75
2022/05/17 11:53:54;;;;;;;7.03;1.35;;;28.20;1.00;;;;;;4991945;28;20391;-74
2022/05/17 11:56:39;;;;;;;6.40;1.38;;;28.00;1.00;;;;;;4992351;28;20041;-75
2022/05/17 11:59:08;;;;;;;8.20;2.95;;;28.50;1.00;;;;;;4990503;28;20069;-75
2022/05/17 12:01:35;;;;;;;6.85;1.80;;;29.80;1.00;;;;;;4993450;28;20050;-75
2022/05/17 12:04:20;;;;;;;5.85;1.52;;;31.40;1.00;;;;;;5027890;28;20061;-75
2022/05/17 12:06:49;;;;;;;6.53;1.20;;;33.40;1.00;;;;;;4985385;28;20120;-75
2022/05/17 12:09:21;;;;;;;6.70;2.08;;;34.00;1.00;;;;;;4996223;28;20042;-75
2022/05/17 12:11:56;;;;;;;5.07;1.48;;;34.80;1.00;;;;;;4996292;28;20097;-75
2022/05/17 12:14:26;;;;;;;7.45;1.50;;;35.20;1.00;;;;;;4994834;28;20088;-75
2022/05/17 12:16:59;;;;;;;4.85;1.33;;;34.30;1.00;;;;;;4995496;28;20446;-75
2022/05/17 12:19:49;;;;;;;7.00;1.45;;;33.80;1.00;;;;;;4995410;28;20104;-75
2022/05/17 12:22:20;;;;;;;7.28;2.17;;;33.30;1.00;;;;;;5027347;28;20065;-75
2022/05/17 12:25:09;;;;;;;7.63;1.63;;;32.20;1.00;;;;;;4996008;28;20450;-75
2022/05/17 12:27:46;;;;;;;5.38;1.25;;;31.30;1.00;;;;;;4995988;28;20057;-75
2022/05/17 12:33:45;;;;;;;7.55;1.60;;;29.60;1.00;;;;;;4996018;28;20439;-75
2022/05/17 12:36:23;;;;;;;5.80;1.20;;;29.60;1.00;;;;;;4993910;28;20054;-75
2022/05/17 12:44:54;;;;;;;4.78;1.30;;;30.20;1.00;;;;;;4987282;28;20617;-75
2022/05/17 12:47:23;;;;;;;4.18;1.40;;;31.30;1.00;;;;;;4995654;28;20058;-74
2022/05/17 12:49:54;;;;;;;5.00;1.20;;;32.30;1.00;;;;;;4995767;28;20116;-75
2022/05/17 12:52:41;;;;;;;5.10;1.20;;;33.60;1.00;;;;;;4995769;28;20043;-75
2022/05/17 12:55:12;;;;;;;6.13;1.38;;;34.50;1.00;;;;;;4994945;28;20046;-75
2022/05/17 12:57:39;;;;;;;5.65;1.42;;;34.70;1.00;;;;;;4995604;28;20050;-75
2022/05/17 13:00:28;;;;;;;6.50;1.90;;;34.80;1.00;;;;;;4995350;28;20039;-75
2022/05/17 13:02:58;;;;;;;6.63;1.48;;;34.60;1.00;;;;;;4995476;28;20553;-75
2022/05/17 13:05:33;;;;;;;7.28;1.55;;;34.70;1.00;;;;;;4995465;28;20081;-75
2022/05/17 13:08:08;;;;;;;5.15;1.25;;;35.00;1.00;;;;;;4995488;28;20046;-75
2022/05/17 13:10:35;;;;;;;;;;;35.00;1.00;;;;;;4995820;28;20082;-75
2022/05/17 13:13:12;;;;;;;7.90;1.40;;;33.60;1.00;;;;;;4995305;28;20294;-75
2022/05/17 13:15:38;;;;;;;5.70;1.17;;;33.90;1.00;;;;;;4995201;28;20060;-75
2022/05/17 13:18:04;;;;;;;8.93;1.63;;;33.30;1.00;;;;;;4993928;28;20047;-75
2022/05/17 13:20:31;;;;;;;5.38;1.42;;;33.00;1.00;;;;;;4994949;28;20046;-75
2022/05/17 13:22:57;;;;;;;6.57;1.40;;;32.10;1.00;;;;;;4995047;28;20454;-75